createdAt,value
2023-03-05T00:00:49.940Z,101359.03
2023-03-05T00:03:16.656Z,101353.88
2023-03-05T00:05:43.252Z,101359.47
2023-03-05T00:08:09.810Z,101350.16
2023-03-05T00:10:36.386Z,101354.38
2023-03-05T00:13:03.069Z,101348.06
2023-03-05T00:15:29.696Z,101345.63
2023-03-05T00:17:56.230Z,101347.25
2023-03-05T00:20:34.772Z,101344.97
2023-03-05T00:23:02.092Z,101345.38
2023-03-05T00:25:28.819Z,101345.94
2023-03-05T00:27:55.379Z,101331.81
2023-03-05T00:30:22.050Z,101337.06
2023-03-05T00:32:48.624Z,101334.38
2023-03-05T00:35:15.366Z,101328.94
2023-03-05T00:37:41.895Z,101327.44
2023-03-05T00:40:12.183Z,101321.50
2023-03-05T00:42:38.948Z,101317.22
2023-03-05T00:45:07.797Z,101321.00
2023-03-05T00:47:34.795Z,101322.94
2023-03-05T00:50:02.391Z,101321.59
2023-03-05T00:52:28.949Z,101316.31
2023-03-05T00:54:55.561Z,101300.47
2023-03-05T00:57:22.218Z,101302.69
2023-03-05T00:59:48.792Z,101300.63
2023-03-05T01:02:15.568Z,101292.75
2023-03-05T01:04:45.833Z,101295.78
2023-03-05T01:07:13.033Z,101292.31
2023-03-05T01:09:39.638Z,101287.25
2023-03-05T01:12:06.613Z,101288.59
2023-03-05T01:14:34.594Z,101279.28
2023-03-05T01:17:01.602Z,101283.38
2023-03-05T01:19:28.270Z,101276.28
2023-03-05T01:21:55.094Z,101272.88
2023-03-05T01:24:22.367Z,101272.00
2023-03-05T01:26:49.683Z,101268.50
2023-03-05T01:29:16.384Z,101264.47
2023-03-05T01:31:43.172Z,101262.09
2023-03-05T01:34:10.022Z,101261.13
2023-03-05T01:36:36.666Z,101262.63
2023-03-05T01:39:03.503Z,101260.00
2023-03-05T01:41:30.716Z,101257.75
2023-03-05T01:43:58.161Z,101251.53
2023-03-05T01:46:29.506Z,101250.19
2023-03-05T01:49:02.147Z,101247.19
2023-03-05T01:51:51.641Z,101241.59
2023-03-05T01:54:20.931Z,101237.94
2023-03-05T01:56:50.353Z,101231.03
2023-03-05T01:59:17.843Z,101231.69
2023-03-05T02:01:48.212Z,101230.91
2023-03-05T02:04:18.686Z,101237.81
2023-03-05T02:06:46.917Z,101217.25
2023-03-05T02:09:13.655Z,101210.75
2023-03-05T02:11:41.147Z,101217.97
2023-03-05T02:14:10.094Z,101201.25
2023-03-05T02:16:38.495Z,101210.09
2023-03-05T02:19:12.129Z,101213.31
2023-03-05T02:21:45.293Z,101198.22
2023-03-05T02:24:13.877Z,101205.59
2023-03-05T02:26:43.415Z,101205.44
2023-03-05T02:29:14.162Z,101202.59
2023-03-05T02:31:41.839Z,101203.53
2023-03-05T02:34:08.510Z,101203.94
2023-03-05T02:36:35.111Z,101198.06
2023-03-05T02:39:01.816Z,101195.88
2023-03-05T02:41:28.486Z,101190.56
2023-03-05T02:43:57.517Z,101186.19
2023-03-05T02:46:24.181Z,101183.19
2023-03-05T02:48:50.872Z,101185.56
2023-03-05T02:51:17.575Z,101181.22
2023-03-05T02:53:45.483Z,101176.41
2023-03-05T02:56:12.843Z,101186.13
2023-03-05T02:58:39.788Z,101169.56
2023-03-05T03:01:06.348Z,101177.66
2023-03-05T03:03:32.954Z,101168.78
2023-03-05T03:05:59.571Z,101168.88
2023-03-05T03:08:26.280Z,101164.84
2023-03-05T03:10:52.947Z,101158.69
2023-03-05T03:13:19.534Z,101154.09
2023-03-05T03:15:46.183Z,101141.16
2023-03-05T03:18:12.972Z,101150.84
2023-03-05T03:20:39.819Z,101151.69
2023-03-05T03:23:07.114Z,101143.13
2023-03-05T03:25:33.884Z,101142.81
2023-03-05T03:28:00.561Z,101134.69
2023-03-05T03:30:27.219Z,101135.03
2023-03-05T03:32:53.852Z,101121.91
2023-03-05T03:35:20.501Z,101126.34
2023-03-05T03:37:48.365Z,101126.25
2023-03-05T03:40:15.070Z,101122.22
2023-03-05T03:42:41.762Z,101115.84
2023-03-05T03:45:09.040Z,101114.13
2023-03-05T03:47:35.756Z,101115.63
2023-03-05T03:50:02.631Z,101110.41
2023-03-05T03:52:29.648Z,101106.56
2023-03-05T03:55:01.387Z,101108.09
2023-03-05T03:57:33.417Z,101106.72
2023-03-05T04:00:00.600Z,101100.28
2023-03-05T04:02:27.466Z,101097.69
2023-03-05T04:04:54.092Z,101100.34
2023-03-05T04:07:21.582Z,101097.53
2023-03-05T04:09:48.728Z,101090.06
2023-03-05T04:12:18.089Z,101089.19
2023-03-05T04:14:46.574Z,101086.66
2023-03-05T04:17:13.603Z,101084.75
2023-03-05T04:19:40.948Z,101080.34
2023-03-05T04:22:11.230Z,101079.34
2023-03-05T04:24:38.695Z,101070.28
2023-03-05T04:27:06.767Z,101069.66
2023-03-05T04:29:33.896Z,101064.28
2023-03-05T04:32:00.727Z,101072.56
2023-03-05T04:34:27.318Z,101076.66
2023-03-05T04:36:53.954Z,101079.03
2023-03-05T04:39:23.595Z,101075.22
2023-03-05T04:41:50.056Z,101066.25
2023-03-05T04:44:17.746Z,101065.34
2023-03-05T04:46:44.570Z,101066.09
2023-03-05T04:49:11.233Z,101062.75
2023-03-05T04:51:37.865Z,101058.16
2023-03-05T04:54:04.770Z,101064.63
2023-03-05T04:56:31.407Z,101062.25
2023-03-05T04:58:58.748Z,101060.19
2023-03-05T05:01:25.745Z,101065.94
2023-03-05T05:03:52.378Z,101067.91
2023-03-05T05:06:18.955Z,101061.06
2023-03-05T05:08:45.489Z,101058.50
2023-03-05T05:11:14.417Z,101062.41
2023-03-05T05:13:41.038Z,101052.50
2023-03-05T05:16:08.747Z,101047.97
2023-03-05T05:18:35.628Z,101044.34
2023-03-05T05:21:02.223Z,101041.94
2023-03-05T05:23:28.887Z,101038.25
2023-03-05T05:26:00.071Z,101036.25
2023-03-05T05:28:27.287Z,101037.16
2023-03-05T05:30:54.549Z,101041.97
2023-03-05T05:33:22.240Z,101042.44
2023-03-05T05:35:49.069Z,101043.00
2023-03-05T05:38:15.624Z,101032.19
2023-03-05T05:40:42.635Z,101041.03
2023-03-05T05:43:09.249Z,101039.41
2023-03-05T05:45:38.595Z,101030.69
2023-03-05T05:48:05.250Z,101032.75
2023-03-05T05:50:31.826Z,101035.75
2023-03-05T05:52:58.438Z,101034.66
2023-03-05T05:55:25.072Z,101031.81
2023-03-05T05:57:51.606Z,101030.84
2023-03-05T06:00:18.614Z,101027.31
2023-03-05T06:02:45.258Z,101025.97
2023-03-05T06:05:15.006Z,101026.50
2023-03-05T06:07:41.748Z,101022.66
2023-03-05T06:10:09.926Z,101038.03
2023-03-05T06:12:36.905Z,101034.34
2023-03-05T06:15:03.837Z,101023.63
2023-03-05T06:17:31.224Z,101028.63
2023-03-05T06:19:58.917Z,101023.84
2023-03-05T06:22:25.599Z,101021.91
2023-03-05T06:24:52.316Z,101025.97
2023-03-05T06:27:18.942Z,101024.47
2023-03-05T06:29:45.479Z,101023.69
2023-03-05T06:32:12.295Z,101020.53
2023-03-05T06:34:38.969Z,101021.59
2023-03-05T06:37:05.653Z,101024.75
2023-03-05T06:39:32.282Z,101023.94
2023-03-05T06:41:58.855Z,101019.53
2023-03-05T06:44:25.774Z,101015.41
2023-03-05T06:46:52.590Z,101017.09
2023-03-05T06:49:19.286Z,101013.34
2023-03-05T06:51:45.883Z,101010.66
2023-03-05T06:54:14.674Z,101010.88
2023-03-05T06:56:44.105Z,101016.00
2023-03-05T06:59:12.734Z,101017.91
2023-03-05T07:01:39.348Z,101011.72
2023-03-05T07:04:06.811Z,101016.56
2023-03-05T07:06:35.244Z,101023.91
2023-03-05T07:09:03.763Z,101024.09
2023-03-05T07:11:30.509Z,101012.53
2023-03-05T07:13:57.452Z,101012.31
2023-03-05T07:16:29.303Z,101009.81
2023-03-05T07:18:58.887Z,101014.69
2023-03-05T07:21:28.021Z,101012.47
2023-03-05T07:23:58.136Z,101014.38
2023-03-05T07:26:25.657Z,101006.81
2023-03-05T07:28:52.410Z,101007.34
2023-03-05T07:31:21.393Z,101004.50
2023-03-05T07:33:49.927Z,101004.50
2023-03-05T07:36:17.285Z,100995.97
2023-03-05T07:38:44.141Z,100994.41
2023-03-05T07:41:13.442Z,101003.28
2023-03-05T07:43:40.262Z,100999.66
2023-03-05T07:46:08.969Z,100998.16
2023-03-05T07:48:35.664Z,100999.13
2023-03-05T07:51:05.012Z,100985.53
2023-03-05T07:53:31.600Z,101000.47
2023-03-05T07:55:58.287Z,100994.22
2023-03-05T07:58:25.237Z,100993.00
2023-03-05T08:00:51.883Z,100995.88
2023-03-05T08:03:18.846Z,100982.13
2023-03-05T08:05:45.907Z,100983.19
2023-03-05T08:08:12.566Z,100973.75
2023-03-05T08:10:39.234Z,100981.13
2023-03-05T08:13:06.407Z,100976.84
2023-03-05T08:15:32.992Z,100976.13
2023-03-05T08:18:00.359Z,100971.78
2023-03-05T08:20:26.934Z,100972.69
2023-03-05T08:22:53.562Z,100967.44
2023-03-05T08:25:20.152Z,100965.88
2023-03-05T08:27:47.451Z,100968.66
2023-03-05T08:30:19.730Z,100974.81
2023-03-05T08:32:48.171Z,100972.09
2023-03-05T08:35:14.806Z,100967.66
2023-03-05T08:37:41.400Z,100962.06
2023-03-05T08:40:08.676Z,100965.44
2023-03-05T08:42:35.223Z,100961.13
2023-03-05T08:45:01.835Z,100960.59
2023-03-05T08:47:28.540Z,100963.22
2023-03-05T08:49:57.142Z,100956.75
2023-03-05T08:52:23.841Z,100955.91
2023-03-05T08:54:50.517Z,100955.81
2023-03-05T08:57:17.195Z,100946.97
2023-03-05T08:59:43.796Z,100959.69
2023-03-05T09:02:12.501Z,100954.28
2023-03-05T09:04:39.843Z,100951.69
2023-03-05T09:07:06.769Z,100957.22
2023-03-05T09:09:34.000Z,100947.53
2023-03-05T09:12:01.174Z,100943.06
2023-03-05T09:14:28.602Z,100946.19
2023-03-05T09:16:56.762Z,100951.75
2023-03-05T09:19:23.887Z,100948.31
2023-03-05T09:21:50.557Z,100945.28
2023-03-05T09:24:17.200Z,100949.63
2023-03-05T09:26:44.152Z,100943.00
2023-03-05T09:29:11.106Z,100940.59
2023-03-05T09:31:38.417Z,100928.78
2023-03-05T09:34:05.794Z,100933.31
2023-03-05T09:36:32.704Z,100930.19
2023-03-05T09:38:59.385Z,100930.84
2023-03-05T09:41:50.856Z,100925.28
2023-03-05T09:44:23.747Z,100930.69
2023-03-05T09:47:38.380Z,100926.53
2023-03-05T09:50:25.196Z,100925.91
2023-03-05T09:52:58.112Z,100915.78
2023-03-05T09:55:33.079Z,100921.56
2023-03-05T09:58:06.262Z,100917.16
2023-03-05T10:00:45.122Z,100913.09
2023-03-05T10:03:22.311Z,100905.97
2023-03-05T10:06:24.549Z,100913.56
2023-03-05T10:08:57.765Z,100914.59
2023-03-05T10:11:42.828Z,100897.97
2023-03-05T10:14:32.664Z,100902.50
2023-03-05T10:17:02.748Z,100905.44
2023-03-05T10:20:04.342Z,100901.59
2023-03-05T10:22:37.961Z,100902.72
2023-03-05T10:25:20.022Z,100904.41
2023-03-05T10:27:54.263Z,100898.28
2023-03-05T10:30:30.327Z,100895.03
2023-03-05T10:33:20.097Z,100890.97
2023-03-05T10:36:26.312Z,100889.81
2023-03-05T10:38:59.965Z,100879.03
2023-03-05T10:41:53.495Z,100877.53
2023-03-05T10:44:49.038Z,100866.56
2023-03-05T10:47:24.200Z,100857.94
2023-03-05T10:49:53.524Z,100858.75
2023-03-05T10:52:29.507Z,100855.88
2023-03-05T10:54:56.132Z,100858.06
2023-03-05T10:57:25.726Z,100856.09
2023-03-05T11:00:08.214Z,100851.16
2023-03-05T11:02:53.755Z,100843.94
2023-03-05T11:05:38.324Z,100841.94
2023-03-05T11:08:26.321Z,100839.03
2023-03-05T11:11:05.708Z,100842.69
2023-03-05T11:13:33.793Z,100841.28
2023-03-05T11:16:02.145Z,100838.63
2023-03-05T11:18:34.257Z,100836.16
2023-03-05T11:21:19.533Z,100834.84
2023-03-05T11:24:15.463Z,100826.72
2023-03-05T11:26:53.637Z,100818.56
2023-03-05T11:29:28.016Z,100817.72
2023-03-05T11:31:54.957Z,100814.66
2023-03-05T11:34:31.309Z,100816.09
2023-03-05T11:37:04.566Z,100807.34
2023-03-05T11:39:35.124Z,100801.53
2023-03-05T11:42:15.016Z,100802.97
2023-03-05T11:44:49.480Z,100805.59
2023-03-05T11:47:49.251Z,100801.00
2023-03-05T11:50:16.060Z,100796.59
2023-03-05T11:52:50.125Z,100795.81
2023-03-05T11:55:35.448Z,100794.41
2023-03-05T11:58:39.335Z,100787.59
2023-03-05T12:01:17.875Z,100781.72
2023-03-05T12:03:44.939Z,100775.59
2023-03-05T12:06:28.660Z,100772.41
2023-03-05T12:08:58.120Z,100772.91
2023-03-05T12:11:31.416Z,100764.50
2023-03-05T12:14:05.209Z,100756.47
2023-03-05T12:16:45.325Z,100761.84
2023-03-05T12:19:28.513Z,100754.38
2023-03-05T12:21:57.357Z,100756.22
2023-03-05T12:24:26.704Z,100751.16
2023-03-05T12:27:03.565Z,100748.94
2023-03-05T12:29:32.861Z,100747.06
2023-03-05T12:32:04.268Z,100729.03
2023-03-05T12:34:48.104Z,100719.41
2023-03-05T12:37:34.582Z,100727.53
2023-03-05T12:40:12.251Z,100728.72
2023-03-05T12:42:38.787Z,100723.78
2023-03-05T12:45:19.150Z,100721.22
2023-03-05T12:48:12.590Z,100716.78
2023-03-05T12:50:39.118Z,100709.16
2023-03-05T12:53:11.819Z,100707.25
2023-03-05T12:55:39.959Z,100708.53
2023-03-05T12:58:35.875Z,100692.31
2023-03-05T13:01:22.667Z,100706.72
2023-03-05T13:04:00.821Z,100698.59
2023-03-05T13:06:31.156Z,100683.09
2023-03-05T13:09:08.148Z,100685.69
2023-03-05T13:11:39.038Z,100685.16
2023-03-05T13:14:23.509Z,100687.81
2023-03-05T13:16:50.328Z,100678.03
2023-03-05T13:19:17.937Z,100672.78
2023-03-05T13:21:44.747Z,100672.47
2023-03-05T13:24:19.337Z,100663.72
2023-03-05T13:26:46.035Z,100666.06
2023-03-05T13:29:12.583Z,100668.13
2023-03-05T13:31:45.522Z,100656.66
2023-03-05T13:34:20.994Z,100663.91
2023-03-05T13:37:12.624Z,100659.25
2023-03-05T13:40:16.954Z,100654.69
2023-03-05T13:42:43.589Z,100651.53
2023-03-05T13:45:28.706Z,100647.88
2023-03-05T13:48:01.172Z,100641.34
2023-03-05T13:50:29.611Z,100630.41
2023-03-05T13:53:13.214Z,100639.81
2023-03-05T13:55:39.901Z,100630.84
2023-03-05T13:58:06.564Z,100624.19
2023-03-05T14:00:39.041Z,100621.84
2023-03-05T14:03:20.754Z,100609.03
2023-03-05T14:05:49.929Z,100609.19
2023-03-05T14:08:25.448Z,100603.94
2023-03-05T14:10:54.527Z,100606.59
2023-03-05T14:13:24.592Z,100605.44
2023-03-05T14:16:09.523Z,100603.84
2023-03-05T14:18:36.463Z,100607.13
2023-03-05T14:21:05.559Z,100595.84
2023-03-05T14:23:43.708Z,100600.69
2023-03-05T14:26:40.019Z,100593.72
2023-03-05T14:29:06.868Z,100590.69
2023-03-05T14:31:45.864Z,100581.78
2023-03-05T14:34:24.915Z,100578.75
2023-03-05T14:36:54.000Z,100575.00
2023-03-05T14:39:47.024Z,100565.81
2023-03-05T14:42:22.807Z,100567.38
2023-03-05T14:44:49.381Z,100561.38
2023-03-05T14:47:19.244Z,100548.75
2023-03-05T14:49:46.021Z,100551.31
2023-03-05T14:52:18.390Z,100548.03
2023-03-05T14:54:45.666Z,100544.38
2023-03-05T14:57:21.896Z,100543.59
2023-03-05T14:59:48.764Z,100538.75
2023-03-05T15:02:21.369Z,100534.91
2023-03-05T15:04:48.480Z,100528.78
2023-03-05T15:07:26.671Z,100534.66
2023-03-05T15:09:53.334Z,100532.88
2023-03-05T15:12:24.464Z,100529.44
2023-03-05T15:14:52.962Z,100523.00
2023-03-05T15:17:43.141Z,100515.34
2023-03-05T15:20:30.481Z,100513.97
2023-03-05T15:22:57.085Z,100508.84
2023-03-05T15:25:28.754Z,100515.25
2023-03-05T15:27:55.532Z,100502.66
2023-03-05T15:30:25.747Z,100507.91
2023-03-05T15:32:53.632Z,100513.09
2023-03-05T15:35:20.646Z,100503.88
2023-03-05T15:37:47.214Z,100498.31
2023-03-05T15:40:13.963Z,100495.41
2023-03-05T15:42:40.807Z,100504.41
2023-03-05T15:45:07.732Z,100506.78
2023-03-05T15:47:34.440Z,100490.13
2023-03-05T15:50:01.082Z,100495.25
2023-03-05T15:52:27.669Z,100485.94
2023-03-05T15:54:54.274Z,100484.19
2023-03-05T15:57:23.891Z,100480.75
2023-03-05T15:59:50.398Z,100473.97
2023-03-05T16:02:17.151Z,100474.66
2023-03-05T16:04:43.844Z,100476.03
2023-03-05T16:07:11.673Z,100468.69
2023-03-05T16:09:42.743Z,100468.66
2023-03-05T16:12:15.084Z,100467.06
2023-03-05T16:14:42.566Z,100467.69
2023-03-05T16:17:09.327Z,100463.47
2023-03-05T16:19:40.332Z,100464.63
2023-03-05T16:22:06.938Z,100459.34
2023-03-05T16:24:41.426Z,100455.41
2023-03-05T16:27:08.078Z,100450.97
2023-03-05T16:29:34.706Z,100456.53
2023-03-05T16:32:05.673Z,100456.97
2023-03-05T16:34:34.365Z,100458.75
2023-03-05T16:37:04.229Z,100449.53
2023-03-05T16:39:31.221Z,100449.50
2023-03-05T16:41:57.807Z,100445.75
2023-03-05T16:44:24.847Z,100442.38
2023-03-05T16:46:53.995Z,100440.38
2023-03-05T16:49:21.377Z,100437.19
2023-03-05T16:51:48.594Z,100434.19
2023-03-05T16:54:15.463Z,100426.53
2023-03-05T16:56:42.112Z,100436.72
2023-03-05T16:59:08.798Z,100431.66
2023-03-05T17:01:35.441Z,100434.66
2023-03-05T17:04:02.172Z,100430.16
2023-03-05T17:06:30.737Z,100432.09
2023-03-05T17:08:58.388Z,100430.50
2023-03-05T17:11:25.825Z,100423.66
2023-03-05T17:13:52.579Z,100427.91
2023-03-05T17:16:20.678Z,100427.22
2023-03-05T17:18:48.038Z,100428.50
2023-03-05T17:21:15.402Z,100419.19
2023-03-05T17:23:42.329Z,100414.03
2023-03-05T17:26:11.782Z,100417.25
2023-03-05T17:28:38.708Z,100421.53
2023-03-05T17:31:05.768Z,100422.16
2023-03-05T17:33:32.761Z,100424.53
2023-03-05T17:36:00.212Z,100416.06
2023-03-05T17:38:27.531Z,100418.66
2023-03-05T17:40:54.168Z,100416.47
2023-03-05T17:43:20.853Z,100420.16
2023-03-05T17:45:47.756Z,100408.34
2023-03-05T17:48:15.913Z,100408.22
2023-03-05T17:50:44.919Z,100413.50
2023-03-05T17:53:11.896Z,100406.69
2023-03-05T17:55:39.006Z,100410.94
2023-03-05T17:58:05.610Z,100418.41
2023-03-05T18:00:32.555Z,100405.06
2023-03-05T18:02:59.933Z,100405.84
2023-03-05T18:05:28.056Z,100411.13
2023-03-05T18:07:55.495Z,100411.16
2023-03-05T18:10:24.949Z,100405.38
2023-03-05T18:12:51.976Z,100408.53
2023-03-05T18:15:20.127Z,100394.69
2023-03-05T18:17:46.797Z,100392.31
2023-03-05T18:20:26.691Z,100397.88
2023-03-05T18:22:53.908Z,100404.41
2023-03-05T18:25:20.816Z,100405.91
2023-03-05T18:27:48.141Z,100395.00
2023-03-05T18:30:14.979Z,100401.38
2023-03-05T18:32:41.664Z,100393.22
2023-03-05T18:35:12.682Z,100391.13
2023-03-05T18:37:39.769Z,100386.47
2023-03-05T18:40:09.892Z,100388.72
2023-03-05T18:42:39.710Z,100381.25
2023-03-05T18:45:09.694Z,100380.47
2023-03-05T18:47:36.756Z,100384.91
2023-03-05T18:50:03.535Z,100381.19
2023-03-05T18:52:30.198Z,100374.94
2023-03-05T18:54:56.792Z,100372.31
2023-03-05T18:57:26.584Z,100382.44
2023-03-05T18:59:53.185Z,100373.97
2023-03-05T19:02:19.906Z,100376.16
2023-03-05T19:04:46.627Z,100378.22
2023-03-05T19:07:13.256Z,100364.38
2023-03-05T19:09:58.146Z,100361.78
2023-03-05T19:12:35.147Z,100367.59
2023-03-05T19:15:03.083Z,100365.19
2023-03-05T19:17:31.556Z,100363.28
2023-03-05T19:19:59.652Z,100366.31
2023-03-05T19:22:27.083Z,100368.16
2023-03-05T19:25:00.138Z,100361.16
2023-03-05T19:27:27.240Z,100360.38
2023-03-05T19:29:53.875Z,100354.34
2023-03-05T19:32:23.741Z,100355.03
2023-03-05T19:34:54.371Z,100343.63
2023-03-05T19:37:21.252Z,100350.13
2023-03-05T19:39:48.346Z,100342.06
2023-03-05T19:42:15.141Z,100347.34
2023-03-05T19:44:42.242Z,100341.34
2023-03-05T19:47:08.819Z,100332.25
2023-03-05T19:49:35.987Z,100335.31
2023-03-05T19:52:04.146Z,100338.00
2023-03-05T19:54:31.019Z,100333.47
2023-03-05T19:56:58.891Z,100332.50
2023-03-05T19:59:25.879Z,100336.09
2023-03-05T20:01:53.138Z,100327.91
2023-03-05T20:04:22.508Z,100331.56
2023-03-05T20:06:49.394Z,100335.84
2023-03-05T20:09:16.957Z,100323.63
2023-03-05T20:11:44.202Z,100325.22
2023-03-05T20:14:13.044Z,100325.84
2023-03-05T20:16:39.943Z,100322.94
2023-03-05T20:19:08.285Z,100326.97
2023-03-05T20:21:38.910Z,100324.66
2023-03-05T20:24:09.808Z,100310.94
2023-03-05T20:26:38.474Z,100323.94
2023-03-05T20:29:05.743Z,100317.75
2023-03-05T20:31:35.252Z,100315.38
2023-03-05T20:34:02.018Z,100310.47
2023-03-05T20:36:28.714Z,100313.03
2023-03-05T20:38:55.776Z,100307.56
2023-03-05T20:41:22.653Z,100308.53
2023-03-05T20:43:51.619Z,100303.50
2023-03-05T20:46:29.367Z,100303.34
2023-03-05T20:48:59.023Z,100295.75
2023-03-05T20:51:27.157Z,100303.56
2023-03-05T20:53:58.008Z,100295.31
2023-03-05T20:56:27.859Z,100289.75
2023-03-05T20:58:58.354Z,100285.69
2023-03-05T21:01:28.700Z,100280.75
2023-03-05T21:03:57.184Z,100286.25
2023-03-05T21:06:25.488Z,100276.81
2023-03-05T21:08:52.586Z,100264.91
2023-03-05T21:11:19.507Z,100258.97
2023-03-05T21:13:46.243Z,100262.31
2023-03-05T21:16:18.414Z,100243.97
2023-03-05T21:18:45.235Z,100257.94
2023-03-05T21:21:11.841Z,100248.81
2023-03-05T21:23:38.675Z,100252.22
2023-03-05T21:26:05.752Z,100241.50
2023-03-05T21:28:33.100Z,100241.75
2023-03-05T21:31:07.398Z,100242.56
2023-03-05T21:33:34.503Z,100238.47
2023-03-05T21:36:01.474Z,100237.06
2023-03-05T21:38:30.456Z,100234.13
2023-03-05T21:40:58.758Z,100232.66
2023-03-05T21:43:26.985Z,100222.72
2023-03-05T21:45:54.855Z,100226.13
2023-03-05T21:48:22.483Z,100228.31
2023-03-05T21:50:49.885Z,100220.44
2023-03-05T21:53:17.853Z,100220.94
2023-03-05T21:56:03.164Z,100215.88
2023-03-05T21:58:31.944Z,100211.00
2023-03-05T22:00:59.423Z,100208.06
2023-03-05T22:03:26.966Z,100203.09
2023-03-05T22:05:54.301Z,100197.59
2023-03-05T22:08:22.230Z,100194.00
2023-03-05T22:10:48.961Z,100186.94
2023-03-05T22:13:17.722Z,100188.31
2023-03-05T22:15:53.591Z,100183.59
2023-03-05T22:18:26.104Z,100179.84
2023-03-05T22:20:53.258Z,100172.47
2023-03-05T22:23:22.364Z,100177.84
2023-03-05T22:26:00.123Z,100175.47
2023-03-05T22:28:27.751Z,100174.38
2023-03-05T22:30:54.499Z,100163.91
2023-03-05T22:33:23.014Z,100161.34
2023-03-05T22:35:50.260Z,100158.84
2023-03-05T22:38:17.958Z,100151.88
2023-03-05T22:40:47.394Z,100152.44
2023-03-05T22:43:15.513Z,100150.78
2023-03-05T22:45:42.194Z,100146.13
2023-03-05T22:48:12.364Z,100143.59
2023-03-05T22:50:40.978Z,100148.41
2023-03-05T22:53:08.569Z,100148.31
2023-03-05T22:55:41.812Z,100135.50
2023-03-05T22:58:09.101Z,100134.16
2023-03-05T23:00:35.992Z,100130.31
2023-03-05T23:03:02.850Z,100124.22
2023-03-05T23:05:29.603Z,100137.66
2023-03-05T23:07:56.301Z,100125.06
2023-03-05T23:10:27.346Z,100123.00
2023-03-05T23:12:55.576Z,100120.72
2023-03-05T23:15:25.228Z,100126.13
2023-03-05T23:17:51.775Z,100121.28
2023-03-05T23:20:21.080Z,100117.88
2023-03-05T23:22:49.424Z,100114.94
2023-03-05T23:25:16.716Z,100112.03
2023-03-05T23:27:44.079Z,100109.09
2023-03-05T23:30:21.727Z,100106.63
2023-03-05T23:33:08.220Z,100108.16
2023-03-05T23:35:40.589Z,100104.72
2023-03-05T23:38:13.933Z,100108.06
2023-03-05T23:40:46.383Z,100102.91
2023-03-05T23:43:14.411Z,100097.16
2023-03-05T23:45:42.381Z,100106.97
2023-03-05T23:48:09.102Z,100101.97
2023-03-05T23:50:38.918Z,100099.66
2023-03-05T23:53:06.708Z,100096.50
2023-03-05T23:55:37.328Z,100094.50
2023-03-05T23:58:04.042Z,100090.50
